createdAt,value
2019-02-15T00:00:34.773Z,0.80
2019-02-15T00:03:02.659Z,0.80
2019-02-15T00:05:29.833Z,0.80
2019-02-15T00:07:57.116Z,0.80
2019-02-15T00:10:24.332Z,0.80
2019-02-15T00:12:52.209Z,0.80
2019-02-15T00:15:19.728Z,0.70
2019-02-15T00:18:09.266Z,0.70
2019-02-15T00:20:41.311Z,0.70
2019-02-15T00:23:08.650Z,0.70
2019-02-15T00:25:36.190Z,0.70
2019-02-15T00:28:03.584Z,0.70
2019-02-15T00:30:30.812Z,0.70
2019-02-15T00:32:58.101Z,0.70
2019-02-15T00:35:25.491Z,0.70
2019-02-15T00:37:52.867Z,0.70
2019-02-15T00:40:20.226Z,0.70
2019-02-15T00:42:47.654Z,0.70
2019-02-15T00:45:19.797Z,0.70
2019-02-15T00:47:53.003Z,0.70
2019-02-15T00:50:38.630Z,0.60
2019-02-15T00:53:18.947Z,0.60
2019-02-15T00:56:04.378Z,0.60
2019-02-15T00:58:51.257Z,0.60
2019-02-15T01:01:43.892Z,0.60
2019-02-15T01:04:30.701Z,0.50
2019-02-15T01:07:12.507Z,0.50
2019-02-15T01:09:55.838Z,0.50
2019-02-15T01:12:30.973Z,0.50
2019-02-15T01:14:58.661Z,0.50
2019-02-15T01:17:25.771Z,0.50
2019-02-15T01:19:53.338Z,0.50
2019-02-15T01:22:20.663Z,0.40
2019-02-15T01:24:47.966Z,0.40
2019-02-15T01:27:33.763Z,0.40
2019-02-15T01:30:20.587Z,0.40
2019-02-15T01:32:58.723Z,0.30
2019-02-15T01:35:44.010Z,0.30
2019-02-15T01:38:20.359Z,0.30
2019-02-15T01:41:19.152Z,0.30
2019-02-15T01:43:56.839Z,0.30
2019-02-15T01:46:38.126Z,0.30
2019-02-15T01:49:05.710Z,0.30
2019-02-15T01:51:32.990Z,0.30
2019-02-15T01:54:00.206Z,0.20
2019-02-15T01:56:27.526Z,0.20
2019-02-15T01:58:55.098Z,0.20
2019-02-15T02:01:24.493Z,0.20
2019-02-15T02:03:51.544Z,0.20
2019-02-15T02:06:18.737Z,0.20
2019-02-15T02:08:45.948Z,0.20
2019-02-15T02:11:13.310Z,0.20
2019-02-15T02:13:49.285Z,0.10
2019-02-15T02:16:10.038Z,0.10
2019-02-15T02:18:37.335Z,0.10
2019-02-15T02:21:04.563Z,0.10
2019-02-15T02:23:31.727Z,0.10
2019-02-15T02:25:58.975Z,0.00
2019-02-15T02:28:26.582Z,0.10
2019-02-15T02:30:53.744Z,0.00
2019-02-15T02:33:22.155Z,0.00
2019-02-15T02:35:49.751Z,0.00
2019-02-15T02:38:17.050Z,0.00
2019-02-15T02:40:44.314Z,0.00
2019-02-15T02:43:11.513Z,-0.10
2019-02-15T02:45:38.811Z,-0.10
2019-02-15T02:48:06.047Z,-0.10
2019-02-15T02:50:33.213Z,0.00
2019-02-15T02:53:00.640Z,0.00
2019-02-15T02:55:27.973Z,0.00
2019-02-15T02:57:55.405Z,0.00
2019-02-15T03:00:22.466Z,0.00
2019-02-15T03:02:49.804Z,0.00
2019-02-15T03:05:16.903Z,0.00
2019-02-15T03:07:44.130Z,0.00
2019-02-15T03:10:11.418Z,0.00
2019-02-15T03:12:38.611Z,0.00
2019-02-15T03:15:06.345Z,0.00
2019-02-15T03:17:34.203Z,0.00
2019-02-15T03:20:01.492Z,0.00
2019-02-15T03:22:28.890Z,0.00
2019-02-15T03:24:56.091Z,0.00
2019-02-15T03:27:23.315Z,0.00
2019-02-15T03:29:50.713Z,0.00
2019-02-15T03:32:17.917Z,0.00
2019-02-15T03:34:45.279Z,-0.10
2019-02-15T03:37:30.462Z,-0.10
2019-02-15T03:40:02.556Z,-0.10
2019-02-15T03:42:30.019Z,-0.10
2019-02-15T03:44:57.329Z,-0.10
2019-02-15T03:47:26.982Z,-0.10
2019-02-15T03:49:54.243Z,0.00
2019-02-15T03:52:21.633Z,0.00
2019-02-15T03:54:48.989Z,0.00
2019-02-15T03:57:16.185Z,0.00
2019-02-15T03:59:43.357Z,0.10
2019-02-15T04:02:10.575Z,0.00
2019-02-15T04:04:37.919Z,0.10
2019-02-15T04:07:05.164Z,0.10
2019-02-15T04:09:32.619Z,0.10
2019-02-15T04:11:59.948Z,0.10
2019-02-15T04:14:32.913Z,0.10
2019-02-15T04:16:56.218Z,0.00
2019-02-15T04:19:23.468Z,0.00
2019-02-15T04:21:50.438Z,0.00
2019-02-15T04:24:19.190Z,0.00
2019-02-15T04:26:46.440Z,0.00
2019-02-15T04:29:13.665Z,-0.10
2019-02-15T04:31:40.761Z,-0.10
2019-02-15T04:34:08.032Z,-0.10
2019-02-15T04:36:35.533Z,-0.10
2019-02-15T04:39:04.409Z,-0.20
2019-02-15T04:41:33.014Z,-0.20
2019-02-15T04:44:00.108Z,-0.20
2019-02-15T04:46:27.421Z,-0.20
2019-02-15T04:48:54.618Z,-0.20
2019-02-15T04:51:21.987Z,-0.20
2019-02-15T04:53:49.100Z,-0.30
2019-02-15T04:56:16.446Z,-0.30
2019-02-15T04:58:43.700Z,-0.30
2019-02-15T05:01:10.943Z,-0.40
2019-02-15T05:03:38.032Z,-0.40
2019-02-15T05:06:05.403Z,-0.40
2019-02-15T05:08:32.484Z,-0.40
2019-02-15T05:10:59.844Z,-0.40
2019-02-15T05:13:27.234Z,-0.50
2019-02-15T05:15:54.687Z,-0.50
2019-02-15T05:18:22.024Z,-0.50
2019-02-15T05:20:49.464Z,-0.50
2019-02-15T05:23:17.270Z,-0.50
2019-02-15T05:25:44.392Z,-0.50
2019-02-15T05:28:11.621Z,-0.60
2019-02-15T05:30:38.854Z,-0.60
2019-02-15T05:33:06.053Z,-0.60
2019-02-15T05:35:34.442Z,-0.60
2019-02-15T05:38:01.786Z,-0.60
2019-02-15T05:40:28.994Z,-0.60
2019-02-15T05:42:56.247Z,-0.60
2019-02-15T05:45:23.481Z,-0.70
2019-02-15T05:47:50.864Z,-0.70
2019-02-15T05:50:18.212Z,-0.70
2019-02-15T05:52:45.488Z,-0.70
2019-02-15T05:55:12.683Z,-0.60
2019-02-15T05:57:39.886Z,-0.50
2019-02-15T06:00:08.050Z,-0.50
2019-02-15T06:02:35.362Z,-0.50
2019-02-15T06:05:02.576Z,-0.40
2019-02-15T06:07:29.701Z,-0.40
2019-02-15T06:09:57.246Z,-0.40
2019-02-15T06:12:25.748Z,-0.40
2019-02-15T06:14:53.204Z,-0.40
2019-02-15T06:17:20.579Z,-0.50
2019-02-15T06:19:48.073Z,-0.60
2019-02-15T06:22:15.540Z,-0.60
2019-02-15T06:24:42.898Z,-0.60
2019-02-15T06:27:10.078Z,-0.60
2019-02-15T06:29:37.778Z,-0.70
2019-02-15T06:32:04.840Z,-0.60
2019-02-15T06:34:32.504Z,-0.70
2019-02-15T06:36:59.863Z,-0.70
2019-02-15T06:39:26.947Z,-0.70
2019-02-15T06:41:54.321Z,-0.80
2019-02-15T06:44:21.927Z,-0.80
2019-02-15T06:46:49.182Z,-0.80
2019-02-15T06:49:16.619Z,-0.80
2019-02-15T06:51:43.984Z,-0.80
2019-02-15T06:54:11.373Z,-0.80
2019-02-15T06:56:38.453Z,-0.80
2019-02-15T06:59:33.027Z,-0.80
2019-02-15T07:02:15.022Z,-0.80
2019-02-15T07:05:13.980Z,-0.80
2019-02-15T07:07:41.298Z,-0.80
2019-02-15T07:10:08.541Z,-0.80
2019-02-15T07:12:35.946Z,-0.80
2019-02-15T07:15:03.533Z,-0.70
2019-02-15T07:17:31.999Z,-0.70
2019-02-15T07:19:59.224Z,-0.70
2019-02-15T07:22:26.555Z,-0.70
2019-02-15T07:24:53.746Z,-0.60
2019-02-15T07:27:21.087Z,-0.60
2019-02-15T07:29:48.430Z,-0.60
2019-02-15T07:32:15.504Z,-0.60
2019-02-15T07:34:42.747Z,-0.50
2019-02-15T07:37:10.260Z,-0.50
2019-02-15T07:39:37.581Z,-0.50
2019-02-15T07:42:04.811Z,-0.30
2019-02-15T07:44:32.729Z,-0.30
2019-02-15T07:47:00.000Z,-0.20
2019-02-15T07:49:27.410Z,-0.20
2019-02-15T07:51:54.699Z,-0.10
2019-02-15T07:54:22.386Z,-0.10
2019-02-15T07:56:49.685Z,0.00
2019-02-15T07:59:16.758Z,0.00
2019-02-15T08:01:44.022Z,0.10
2019-02-15T08:04:11.596Z,0.20
2019-02-15T08:06:39.166Z,0.30
2019-02-15T08:09:10.651Z,0.40
2019-02-15T08:11:38.080Z,0.50
2019-02-15T08:14:14.312Z,0.60
2019-02-15T08:16:34.719Z,0.70
2019-02-15T08:19:02.095Z,0.80
2019-02-15T08:21:29.319Z,0.90
2019-02-15T08:23:57.020Z,0.90
2019-02-15T08:26:24.348Z,1.00
2019-02-15T08:28:51.526Z,1.10
2019-02-15T08:31:19.849Z,1.20
2019-02-15T08:33:47.434Z,1.30
2019-02-15T08:36:14.660Z,1.40
2019-02-15T08:38:42.066Z,1.50
2019-02-15T08:41:09.268Z,1.60
2019-02-15T08:43:37.554Z,1.70
2019-02-15T08:46:05.031Z,1.70
2019-02-15T08:48:32.288Z,1.80
2019-02-15T08:50:59.538Z,1.90
2019-02-15T08:53:27.094Z,2.00
2019-02-15T08:55:54.319Z,2.10
2019-02-15T08:58:21.685Z,2.20
2019-02-15T09:00:48.891Z,2.30
2019-02-15T09:03:16.233Z,2.40
2019-02-15T09:05:43.700Z,2.50
2019-02-15T09:08:10.792Z,2.60
2019-02-15T09:10:38.469Z,2.70
2019-02-15T09:13:05.744Z,2.80
2019-02-15T09:15:33.136Z,2.90
2019-02-15T09:18:00.417Z,2.90
2019-02-15T09:20:27.736Z,3.00
2019-02-15T09:22:55.249Z,3.10
2019-02-15T09:25:22.627Z,3.20
2019-02-15T09:28:15.290Z,3.30
2019-02-15T09:30:44.292Z,3.40
2019-02-15T09:33:11.694Z,3.50
2019-02-15T09:35:39.063Z,3.60
2019-02-15T09:38:06.434Z,3.70
2019-02-15T09:40:33.656Z,3.80
2019-02-15T09:43:00.901Z,3.90
2019-02-15T09:45:28.211Z,4.00
2019-02-15T09:47:55.482Z,4.10
2019-02-15T09:50:22.699Z,4.20
2019-02-15T09:52:50.050Z,4.40
2019-02-15T09:55:17.505Z,4.50
2019-02-15T09:57:44.858Z,4.60
2019-02-15T10:00:12.173Z,4.70
2019-02-15T10:02:39.508Z,4.80
2019-02-15T10:05:06.783Z,4.90
2019-02-15T10:07:34.183Z,5.10
2019-02-15T10:10:01.550Z,5.20
2019-02-15T10:12:28.751Z,5.30
2019-02-15T10:14:55.766Z,5.40
2019-02-15T10:17:22.937Z,5.50
2019-02-15T10:19:50.286Z,5.60
2019-02-15T10:22:17.651Z,5.70
2019-02-15T10:24:45.085Z,5.80
2019-02-15T10:27:12.395Z,5.90
2019-02-15T10:29:39.677Z,6.10
2019-02-15T10:32:06.871Z,6.30
2019-02-15T10:34:34.554Z,6.30
2019-02-15T10:37:01.909Z,6.40
2019-02-15T10:39:29.257Z,6.40
2019-02-15T10:41:56.615Z,6.60
2019-02-15T10:44:23.949Z,6.60
2019-02-15T10:46:51.347Z,6.70
2019-02-15T10:49:19.093Z,6.70
2019-02-15T10:51:46.492Z,6.80
2019-02-15T10:54:13.741Z,7.00
2019-02-15T10:56:41.362Z,7.10
2019-02-15T10:59:08.857Z,7.20
2019-02-15T11:01:36.225Z,7.30
2019-02-15T11:04:03.530Z,7.40
2019-02-15T11:06:32.321Z,7.40
2019-02-15T11:08:59.693Z,7.50
2019-02-15T11:11:26.871Z,7.60
2019-02-15T11:13:54.119Z,7.70
2019-02-15T11:16:21.329Z,7.80
2019-02-15T11:18:48.422Z,7.80
2019-02-15T11:21:15.800Z,7.80
2019-02-15T11:23:43.477Z,7.90
2019-02-15T11:26:10.775Z,8.10
2019-02-15T11:28:37.945Z,8.10
2019-02-15T11:31:05.197Z,8.10
2019-02-15T11:33:32.351Z,8.20
2019-02-15T11:35:59.860Z,8.20
2019-02-15T11:38:27.077Z,8.30
2019-02-15T11:40:54.295Z,8.30
2019-02-15T11:43:21.663Z,8.40
2019-02-15T11:45:49.230Z,8.40
2019-02-15T11:48:16.887Z,8.50
2019-02-15T11:50:44.093Z,8.60
2019-02-15T11:53:11.490Z,8.70
2019-02-15T11:55:38.774Z,8.80
2019-02-15T11:58:06.494Z,8.80
2019-02-15T12:00:34.875Z,8.80
2019-02-15T12:03:02.093Z,8.90
2019-02-15T12:05:29.358Z,8.90
2019-02-15T12:07:56.580Z,9.10
2019-02-15T12:10:23.930Z,9.10
2019-02-15T12:12:51.488Z,9.10
2019-02-15T12:15:18.845Z,9.10
2019-02-15T12:17:46.145Z,9.30
2019-02-15T12:20:13.590Z,9.40
2019-02-15T12:22:40.968Z,9.40
2019-02-15T12:25:08.277Z,9.40
2019-02-15T12:27:35.506Z,9.50
2019-02-15T12:30:03.068Z,9.50
2019-02-15T12:32:30.357Z,9.60
2019-02-15T12:34:58.289Z,9.80
2019-02-15T12:37:25.662Z,9.80
2019-02-15T12:39:52.883Z,9.90
2019-02-15T12:42:20.123Z,9.90
2019-02-15T12:44:48.081Z,9.90
2019-02-15T12:47:15.708Z,10.10
2019-02-15T12:49:43.038Z,10.10
2019-02-15T12:52:10.472Z,10.10
2019-02-15T12:54:37.803Z,10.20
2019-02-15T12:57:05.205Z,10.40
2019-02-15T12:59:32.691Z,10.40
2019-02-15T13:02:00.095Z,10.40
2019-02-15T13:04:27.347Z,10.30
2019-02-15T13:06:54.576Z,10.30
2019-02-15T13:09:21.851Z,10.30
2019-02-15T13:11:48.803Z,10.40
2019-02-15T13:14:15.954Z,10.40
2019-02-15T13:16:43.168Z,10.60
2019-02-15T13:19:10.505Z,10.60
2019-02-15T13:21:37.682Z,10.60
2019-02-15T13:24:04.800Z,10.70
2019-02-15T13:26:32.270Z,10.70
2019-02-15T13:29:00.089Z,10.70
2019-02-15T13:31:27.384Z,10.60
2019-02-15T13:33:54.614Z,10.80
2019-02-15T13:36:21.714Z,10.90
2019-02-15T13:38:48.887Z,10.90
2019-02-15T13:41:16.209Z,10.90
2019-02-15T13:43:43.498Z,10.90
2019-02-15T13:46:10.831Z,10.90
2019-02-15T13:48:38.040Z,10.90
2019-02-15T13:51:05.397Z,11.00
2019-02-15T13:53:32.769Z,11.00
2019-02-15T13:56:00.194Z,11.00
2019-02-15T13:58:27.457Z,11.00
2019-02-15T14:00:54.554Z,11.10
2019-02-15T14:03:21.760Z,11.00
2019-02-15T14:05:48.963Z,11.10
2019-02-15T14:08:16.334Z,11.10
2019-02-15T14:10:43.430Z,11.10
2019-02-15T14:13:11.282Z,11.20
2019-02-15T14:15:38.545Z,11.20
2019-02-15T14:18:05.800Z,11.20
2019-02-15T14:20:33.156Z,11.40
2019-02-15T14:23:00.385Z,11.40
2019-02-15T14:25:27.597Z,11.50
2019-02-15T14:27:54.850Z,11.50
2019-02-15T14:30:22.128Z,11.40
2019-02-15T14:32:49.412Z,11.50
2019-02-15T14:35:16.718Z,11.40
2019-02-15T14:37:43.967Z,11.40
2019-02-15T14:40:11.871Z,11.40
2019-02-15T14:42:39.219Z,11.40
2019-02-15T14:45:07.155Z,11.40
2019-02-15T14:47:35.793Z,11.40
2019-02-15T14:50:03.193Z,11.40
2019-02-15T14:52:30.654Z,11.30
2019-02-15T14:54:58.013Z,11.30
2019-02-15T14:57:25.403Z,11.30
2019-02-15T14:59:53.804Z,11.30
2019-02-15T15:02:21.077Z,11.30
2019-02-15T15:04:48.483Z,11.30
2019-02-15T15:07:16.165Z,11.20
2019-02-15T15:09:43.468Z,11.30
2019-02-15T15:12:10.704Z,11.30
2019-02-15T15:14:38.317Z,11.40
2019-02-15T15:17:05.662Z,11.50
2019-02-15T15:19:32.809Z,11.40
2019-02-15T15:22:00.054Z,11.40
2019-02-15T15:24:28.474Z,11.40
2019-02-15T15:26:56.130Z,11.50
2019-02-15T15:29:23.308Z,11.40
2019-02-15T15:31:50.582Z,11.40
2019-02-15T15:34:18.040Z,11.30
2019-02-15T15:36:45.312Z,11.40
2019-02-15T15:39:12.592Z,11.40
2019-02-15T15:41:40.079Z,11.40
2019-02-15T15:44:07.603Z,11.30
2019-02-15T15:46:35.071Z,11.30
2019-02-15T15:49:02.296Z,11.30
2019-02-15T15:51:30.108Z,11.30
2019-02-15T15:53:57.383Z,11.30
2019-02-15T15:56:24.596Z,11.30
2019-02-15T15:58:51.975Z,11.30
2019-02-15T16:01:19.257Z,11.30
2019-02-15T16:03:46.653Z,11.20
2019-02-15T16:06:23.881Z,11.20
2019-02-15T16:08:43.505Z,11.20
2019-02-15T16:11:11.925Z,11.20
2019-02-15T16:13:39.308Z,11.10
2019-02-15T16:16:06.648Z,11.10
2019-02-15T16:18:35.130Z,11.10
2019-02-15T16:21:02.311Z,11.10
2019-02-15T16:23:29.662Z,11.00
2019-02-15T16:25:57.940Z,10.90
2019-02-15T16:28:25.244Z,10.90
2019-02-15T16:30:52.668Z,10.80
2019-02-15T16:33:20.024Z,10.80
2019-02-15T16:35:47.488Z,10.70
2019-02-15T16:38:14.707Z,10.60
2019-02-15T16:40:41.952Z,10.40
2019-02-15T16:43:09.156Z,10.30
2019-02-15T16:45:36.559Z,10.20
2019-02-15T16:48:03.765Z,10.20
2019-02-15T16:50:31.005Z,10.10
2019-02-15T16:52:58.339Z,10.00
2019-02-15T16:55:25.769Z,9.90
2019-02-15T16:57:53.129Z,9.80
2019-02-15T17:00:20.490Z,9.70
2019-02-15T17:02:47.957Z,9.70
2019-02-15T17:05:15.310Z,9.70
2019-02-15T17:07:42.629Z,9.60
2019-02-15T17:10:10.151Z,9.50
2019-02-15T17:12:37.566Z,9.50
2019-02-15T17:15:05.305Z,9.40
2019-02-15T17:17:32.707Z,9.30
2019-02-15T17:19:59.935Z,9.20
2019-02-15T17:22:27.285Z,9.10
2019-02-15T17:24:55.623Z,9.00
2019-02-15T17:27:22.978Z,9.00
2019-02-15T17:29:50.210Z,8.90
2019-02-15T17:32:17.573Z,8.80
2019-02-15T17:34:44.902Z,8.80
2019-02-15T17:37:12.114Z,8.70
2019-02-15T17:39:40.491Z,8.60
2019-02-15T17:42:07.802Z,8.50
2019-02-15T17:44:35.196Z,8.50
2019-02-15T17:47:02.443Z,8.40
2019-02-15T17:49:29.781Z,8.40
2019-02-15T17:51:57.062Z,8.30
2019-02-15T17:54:24.448Z,8.20
2019-02-15T17:56:51.604Z,8.10
2019-02-15T17:59:18.849Z,8.00
2019-02-15T18:01:46.368Z,8.00
2019-02-15T18:04:13.745Z,7.90
2019-02-15T18:06:41.085Z,7.90
2019-02-15T18:09:09.409Z,7.80
2019-02-15T18:11:36.886Z,7.70
2019-02-15T18:14:04.110Z,7.60
2019-02-15T18:16:31.368Z,7.50
2019-02-15T18:18:58.633Z,7.40
2019-02-15T18:21:26.005Z,7.30
2019-02-15T18:23:53.193Z,7.20
2019-02-15T18:26:20.539Z,7.10
2019-02-15T18:28:47.934Z,7.10
2019-02-15T18:31:16.499Z,7.00
2019-02-15T18:33:44.117Z,7.00
2019-02-15T18:36:11.258Z,6.90
2019-02-15T18:38:40.602Z,6.80
2019-02-15T18:41:13.630Z,6.80
2019-02-15T18:43:37.013Z,6.70
2019-02-15T18:46:04.091Z,6.60
2019-02-15T18:48:31.435Z,6.60
2019-02-15T18:50:59.048Z,6.50
2019-02-15T18:53:26.299Z,6.40
2019-02-15T18:55:54.206Z,6.40
2019-02-15T18:58:21.445Z,6.30
2019-02-15T19:00:48.754Z,6.30
2019-02-15T19:03:16.133Z,6.20
2019-02-15T19:05:43.386Z,6.10
2019-02-15T19:08:11.073Z,6.10
2019-02-15T19:10:38.308Z,5.90
2019-02-15T19:13:05.787Z,5.80
2019-02-15T19:15:32.936Z,5.80
2019-02-15T19:18:00.315Z,5.70
2019-02-15T19:20:27.943Z,5.70
2019-02-15T19:22:55.295Z,5.60
2019-02-15T19:25:22.376Z,5.50
2019-02-15T19:27:50.758Z,5.50
2019-02-15T19:30:20.380Z,5.40
2019-02-15T19:32:47.769Z,5.40
2019-02-15T19:35:14.874Z,5.30
2019-02-15T19:37:42.333Z,5.20
2019-02-15T19:40:10.529Z,5.10
2019-02-15T19:42:38.698Z,5.00
2019-02-15T19:45:07.706Z,5.00
2019-02-15T19:47:34.961Z,4.90
2019-02-15T19:50:02.303Z,4.80
2019-02-15T19:52:30.809Z,4.70
2019-02-15T19:54:58.416Z,4.70
2019-02-15T19:57:25.809Z,4.60
2019-02-15T19:59:56.279Z,4.60
2019-02-15T20:02:23.614Z,4.50
2019-02-15T20:04:50.847Z,4.50
2019-02-15T20:07:18.140Z,4.50
2019-02-15T20:09:45.732Z,4.50
2019-02-15T20:12:13.207Z,4.50
2019-02-15T20:14:40.580Z,4.40
2019-02-15T20:17:07.778Z,4.40
2019-02-15T20:19:35.224Z,4.30
2019-02-15T20:22:02.508Z,4.30
2019-02-15T20:24:30.105Z,4.20
2019-02-15T20:26:57.282Z,4.20
2019-02-15T20:29:24.398Z,4.20
2019-02-15T20:31:51.667Z,4.10
2019-02-15T20:34:19.033Z,4.10
2019-02-15T20:36:46.137Z,4.00
2019-02-15T20:39:13.631Z,4.00
2019-02-15T20:41:41.018Z,3.90
2019-02-15T20:44:08.393Z,3.90
2019-02-15T20:46:35.775Z,3.80
2019-02-15T20:49:04.925Z,3.70
2019-02-15T20:51:32.214Z,3.70
2019-02-15T20:53:59.568Z,3.60
2019-02-15T20:56:27.182Z,3.60
2019-02-15T20:58:54.970Z,3.50
2019-02-15T21:01:22.238Z,3.50
2019-02-15T21:03:49.631Z,3.40
2019-02-15T21:06:17.079Z,3.40
2019-02-15T21:08:44.458Z,3.40
2019-02-15T21:11:11.771Z,3.30
2019-02-15T21:13:39.102Z,3.30
2019-02-15T21:16:06.502Z,3.20
2019-02-15T21:18:33.587Z,3.20
2019-02-15T21:21:00.676Z,3.20
2019-02-15T21:23:27.791Z,3.10
2019-02-15T21:25:54.995Z,3.10
2019-02-15T21:28:22.856Z,3.00
2019-02-15T21:30:50.088Z,3.00
2019-02-15T21:33:17.515Z,3.00
2019-02-15T21:35:44.721Z,3.00
2019-02-15T21:38:12.197Z,3.00
2019-02-15T21:40:39.390Z,3.00
2019-02-15T21:43:07.066Z,2.90
2019-02-15T21:45:34.415Z,2.90
2019-02-15T21:48:01.784Z,2.90
2019-02-15T21:50:29.050Z,2.80
2019-02-15T21:52:56.317Z,2.80
2019-02-15T21:55:23.666Z,2.70
2019-02-15T21:57:50.802Z,2.70
2019-02-15T22:00:19.351Z,2.70
2019-02-15T22:02:46.915Z,2.60
2019-02-15T22:05:15.267Z,2.60
2019-02-15T22:07:43.037Z,2.50
2019-02-15T22:10:10.412Z,2.50
2019-02-15T22:12:37.801Z,2.40
2019-02-15T22:15:06.219Z,2.40
2019-02-15T22:17:33.353Z,2.40
2019-02-15T22:20:00.560Z,2.30
2019-02-15T22:22:28.009Z,2.30
2019-02-15T22:24:55.510Z,2.30
2019-02-15T22:27:22.842Z,2.40
2019-02-15T22:29:50.410Z,2.30
2019-02-15T22:32:17.591Z,2.40
2019-02-15T22:34:44.865Z,2.30
2019-02-15T22:37:12.179Z,2.20
2019-02-15T22:39:39.555Z,2.20
2019-02-15T22:42:06.754Z,2.20
2019-02-15T22:44:34.164Z,2.10
2019-02-15T22:47:01.471Z,2.10
2019-02-15T22:49:28.675Z,2.10
2019-02-15T22:51:56.120Z,2.00
2019-02-15T22:54:23.580Z,1.90
2019-02-15T22:56:50.760Z,1.90
2019-02-15T22:59:17.993Z,1.90
2019-02-15T23:01:45.356Z,1.90
2019-02-15T23:04:12.550Z,1.90
2019-02-15T23:06:39.887Z,2.00
2019-02-15T23:09:18.123Z,1.90
2019-02-15T23:11:45.782Z,1.90
2019-02-15T23:14:12.886Z,2.00
2019-02-15T23:16:41.874Z,1.90
2019-02-15T23:19:09.266Z,1.90
2019-02-15T23:21:37.346Z,1.90
2019-02-15T23:24:04.701Z,1.90
2019-02-15T23:26:31.820Z,1.90
2019-02-15T23:28:59.295Z,1.90
2019-02-15T23:31:26.554Z,1.90
2019-02-15T23:33:53.676Z,1.80
2019-02-15T23:36:21.026Z,1.80
2019-02-15T23:38:48.391Z,1.80
2019-02-15T23:41:15.702Z,1.70
2019-02-15T23:43:43.075Z,1.70
2019-02-15T23:46:10.286Z,1.70
2019-02-15T23:48:37.659Z,1.60
2019-02-15T23:51:04.899Z,1.60
2019-02-15T23:53:32.857Z,1.60
2019-02-15T23:56:00.251Z,1.50
2019-02-15T23:58:27.391Z,1.50
